sensor_id;sensor_type;location;lat;lon;timestamp;P1;durP1;ratioP1;P2;durP2;ratioP2
44130;SDS011;29792;48.726;9.248;2022-10-19T00:01:35;15.80;;;10.93;;
44130;SDS011;29792;48.726;9.248;2022-10-19T00:04:00;13.93;;;10.05;;
44130;SDS011;29792;48.726;9.248;2022-10-19T00:06:27;12.75;;;10.20;;
44130;SDS011;29792;48.726;9.248;2022-10-19T00:08:56;13.85;;;10.35;;
44130;SDS011;29792;48.726;9.248;2022-10-19T00:11:24;15.35;;;11.13;;
44130;SDS011;29792;48.726;9.248;2022-10-19T00:13:50;20.75;;;11.35;;
44130;SDS011;29792;48.726;9.248;2022-10-19T00:16:16;15.38;;;11.40;;
44130;SDS011;29792;48.726;9.248;2022-10-19T00:18:42;16.77;;;11.57;;
44130;SDS011;29792;48.726;9.248;2022-10-19T00:21:10;18.38;;;11.88;;
44130;SDS011;29792;48.726;9.248;2022-10-19T00:23:37;13.30;;;10.52;;
44130;SDS011;29792;48.726;9.248;2022-10-19T00:26:03;17.50;;;10.20;;
44130;SDS011;29792;48.726;9.248;2022-10-19T00:28:29;12.20;;;9.57;;
44130;SDS011;29792;48.726;9.248;2022-10-19T00:30:55;14.98;;;11.90;;
44130;SDS011;29792;48.726;9.248;2022-10-19T00:33:20;15.20;;;9.25;;
44130;SDS011;29792;48.726;9.248;2022-10-19T00:35:49;14.20;;;11.23;;
44130;SDS011;29792;48.726;9.248;2022-10-19T00:38:16;11.80;;;9.63;;
44130;SDS011;29792;48.726;9.248;2022-10-19T00:40:43;12.95;;;10.98;;
44130;SDS011;29792;48.726;9.248;2022-10-19T00:43:16;11.85;;;10.65;;
44130;SDS011;29792;48.726;9.248;2022-10-19T00:45:43;13.70;;;10.50;;
44130;SDS011;29792;48.726;9.248;2022-10-19T00:48:10;10.48;;;9.27;;
44130;SDS011;29792;48.726;9.248;2022-10-19T00:50:39;10.55;;;9.30;;
44130;SDS011;29792;48.726;9.248;2022-10-19T00:53:05;8.93;;;7.22;;
44130;SDS011;29792;48.726;9.248;2022-10-19T00:55:31;11.50;;;7.50;;
44130;SDS011;29792;48.726;9.248;2022-10-19T00:57:57;10.15;;;8.25;;
44130;SDS011;29792;48.726;9.248;2022-10-19T01:00:22;10.38;;;8.40;;
44130;SDS011;29792;48.726;9.248;2022-10-19T01:02:48;11.70;;;9.02;;
44130;SDS011;29792;48.726;9.248;2022-10-19T01:05:13;11.52;;;8.43;;
44130;SDS011;29792;48.726;9.248;2022-10-19T01:07:40;12.98;;;9.98;;
44130;SDS011;29792;48.726;9.248;2022-10-19T01:10:05;16.30;;;9.88;;
44130;SDS011;29792;48.726;9.248;2022-10-19T01:18:23;24.83;;;9.38;;
44130;SDS011;29792;48.726;9.248;2022-10-19T01:33:12;34.75;;;10.57;;
44130;SDS011;29792;48.726;9.248;2022-10-19T01:35:45;31.95;;;9.02;;
44130;SDS011;29792;48.726;9.248;2022-10-19T01:38:57;38.05;;;10.38;;
44130;SDS011;29792;48.726;9.248;2022-10-19T01:46:42;31.77;;;8.35;;
44130;SDS011;29792;48.726;9.248;2022-10-19T01:52:03;33.30;;;8.02;;
44130;SDS011;29792;48.726;9.248;2022-10-19T01:54:39;53.35;;;8.35;;
44130;SDS011;29792;48.726;9.248;2022-10-19T01:57:11;21.65;;;6.40;;
44130;SDS011;29792;48.726;9.248;2022-10-19T01:59:41;14.82;;;6.55;;
44130;SDS011;29792;48.726;9.248;2022-10-19T02:02:09;28.88;;;9.32;;
44130;SDS011;29792;48.726;9.248;2022-10-19T02:04:37;10.02;;;7.60;;
44130;SDS011;29792;48.726;9.248;2022-10-19T02:07:04;10.63;;;7.57;;
44130;SDS011;29792;48.726;9.248;2022-10-19T02:09:31;16.02;;;9.30;;
44130;SDS011;29792;48.726;9.248;2022-10-19T02:11:59;20.02;;;9.48;;
44130;SDS011;29792;48.726;9.248;2022-10-19T02:14:30;27.92;;;7.78;;
44130;SDS011;29792;48.726;9.248;2022-10-19T02:17:03;17.25;;;6.93;;
44130;SDS011;29792;48.726;9.248;2022-10-19T02:19:32;18.88;;;7.80;;
44130;SDS011;29792;48.726;9.248;2022-10-19T02:21:57;24.00;;;6.70;;
44130;SDS011;29792;48.726;9.248;2022-10-19T02:24:23;17.13;;;7.40;;
44130;SDS011;29792;48.726;9.248;2022-10-19T02:26:48;15.18;;;7.55;;
44130;SDS011;29792;48.726;9.248;2022-10-19T02:29:14;13.60;;;7.38;;
44130;SDS011;29792;48.726;9.248;2022-10-19T02:31:40;29.67;;;11.43;;
44130;SDS011;29792;48.726;9.248;2022-10-19T02:34:06;12.70;;;10.05;;
44130;SDS011;29792;48.726;9.248;2022-10-19T02:36:31;19.48;;;12.40;;
44130;SDS011;29792;48.726;9.248;2022-10-19T02:38:57;25.77;;;11.48;;
44130;SDS011;29792;48.726;9.248;2022-10-19T02:41:27;31.70;;;10.07;;
44130;SDS011;29792;48.726;9.248;2022-10-19T02:44:02;29.85;;;10.10;;
44130;SDS011;29792;48.726;9.248;2022-10-19T02:46:43;22.55;;;9.48;;
44130;SDS011;29792;48.726;9.248;2022-10-19T02:49:13;22.58;;;8.27;;
44130;SDS011;29792;48.726;9.248;2022-10-19T02:51:53;18.83;;;8.75;;
44130;SDS011;29792;48.726;9.248;2022-10-19T02:54:22;19.70;;;9.63;;
44130;SDS011;29792;48.726;9.248;2022-10-19T02:56:48;21.67;;;9.63;;
44130;SDS011;29792;48.726;9.248;2022-10-19T02:59:13;17.15;;;9.27;;
44130;SDS011;29792;48.726;9.248;2022-10-19T03:01:38;20.40;;;10.70;;
44130;SDS011;29792;48.726;9.248;2022-10-19T03:04:04;18.65;;;10.27;;
44130;SDS011;29792;48.726;9.248;2022-10-19T03:06:29;16.48;;;9.35;;
44130;SDS011;29792;48.726;9.248;2022-10-19T03:08:54;21.42;;;10.40;;
44130;SDS011;29792;48.726;9.248;2022-10-19T03:11:19;29.05;;;11.48;;
44130;SDS011;29792;48.726;9.248;2022-10-19T03:13:45;36.22;;;10.35;;
44130;SDS011;29792;48.726;9.248;2022-10-19T03:16:11;25.58;;;10.68;;
44130;SDS011;29792;48.726;9.248;2022-10-19T03:18:37;24.20;;;10.75;;
44130;SDS011;29792;48.726;9.248;2022-10-19T03:21:04;24.88;;;9.65;;
44130;SDS011;29792;48.726;9.248;2022-10-19T03:23:31;23.13;;;10.63;;
44130;SDS011;29792;48.726;9.248;2022-10-19T03:25:56;24.73;;;9.32;;
44130;SDS011;29792;48.726;9.248;2022-10-19T03:28:22;16.52;;;10.43;;
44130;SDS011;29792;48.726;9.248;2022-10-19T03:30:47;14.55;;;10.00;;
44130;SDS011;29792;48.726;9.248;2022-10-19T03:33:12;21.23;;;10.15;;
44130;SDS011;29792;48.726;9.248;2022-10-19T03:35:37;24.73;;;10.05;;
44130;SDS011;29792;48.726;9.248;2022-10-19T03:38:03;18.90;;;9.32;;
44130;SDS011;29792;48.726;9.248;2022-10-19T03:40:28;16.33;;;9.63;;
44130;SDS011;29792;48.726;9.248;2022-10-19T03:42:53;15.43;;;7.93;;
44130;SDS011;29792;48.726;9.248;2022-10-19T03:45:18;23.35;;;9.88;;
44130;SDS011;29792;48.726;9.248;2022-10-19T03:47:47;16.15;;;9.80;;
44130;SDS011;29792;48.726;9.248;2022-10-19T03:50:13;12.55;;;9.32;;
44130;SDS011;29792;48.726;9.248;2022-10-19T03:52:40;11.88;;;9.20;;
44130;SDS011;29792;48.726;9.248;2022-10-19T03:55:06;14.15;;;10.95;;
44130;SDS011;29792;48.726;9.248;2022-10-19T03:57:32;11.45;;;9.77;;
44130;SDS011;29792;48.726;9.248;2022-10-19T03:59:57;11.43;;;10.18;;
44130;SDS011;29792;48.726;9.248;2022-10-19T04:02:22;14.07;;;10.60;;
44130;SDS011;29792;48.726;9.248;2022-10-19T04:04:47;23.00;;;11.57;;
44130;SDS011;29792;48.726;9.248;2022-10-19T04:07:12;15.48;;;12.18;;
44130;SDS011;29792;48.726;9.248;2022-10-19T04:09:38;15.25;;;11.52;;
44130;SDS011;29792;48.726;9.248;2022-10-19T04:12:03;17.42;;;11.60;;
44130;SDS011;29792;48.726;9.248;2022-10-19T04:14:28;18.67;;;12.52;;
44130;SDS011;29792;48.726;9.248;2022-10-19T04:16:54;40.88;;;15.32;;
44130;SDS011;29792;48.726;9.248;2022-10-19T04:19:19;23.88;;;12.68;;
44130;SDS011;29792;48.726;9.248;2022-10-19T04:21:46;20.38;;;12.48;;
44130;SDS011;29792;48.726;9.248;2022-10-19T04:24:13;28.23;;;12.95;;
44130;SDS011;29792;48.726;9.248;2022-10-19T04:26:41;21.77;;;12.38;;
44130;SDS011;29792;48.726;9.248;2022-10-19T04:29:08;35.70;;;14.50;;
44130;SDS011;29792;48.726;9.248;2022-10-19T04:31:34;27.40;;;14.48;;
44130;SDS011;29792;48.726;9.248;2022-10-19T04:34:00;15.25;;;11.10;;
44130;SDS011;29792;48.726;9.248;2022-10-19T04:36:25;34.20;;;12.32;;
44130;SDS011;29792;48.726;9.248;2022-10-19T04:38:50;22.15;;;12.80;;
44130;SDS011;29792;48.726;9.248;2022-10-19T04:41:17;18.05;;;12.02;;
44130;SDS011;29792;48.726;9.248;2022-10-19T04:43:43;17.60;;;12.75;;
44130;SDS011;29792;48.726;9.248;2022-10-19T04:46:18;22.73;;;12.07;;
44130;SDS011;29792;48.726;9.248;2022-10-19T04:48:44;25.67;;;12.35;;
44130;SDS011;29792;48.726;9.248;2022-10-19T04:51:10;17.70;;;11.15;;
44130;SDS011;29792;48.726;9.248;2022-10-19T04:53:36;24.38;;;14.07;;
44130;SDS011;29792;48.726;9.248;2022-10-19T04:56:03;25.55;;;13.35;;
44130;SDS011;29792;48.726;9.248;2022-10-19T04:58:30;56.95;;;13.50;;
44130;SDS011;29792;48.726;9.248;2022-10-19T05:00:56;28.98;;;12.85;;
44130;SDS011;29792;48.726;9.248;2022-10-19T05:03:21;21.00;;;11.85;;
44130;SDS011;29792;48.726;9.248;2022-10-19T05:05:46;30.85;;;11.10;;
44130;SDS011;29792;48.726;9.248;2022-10-19T05:08:12;34.25;;;12.40;;
44130;SDS011;29792;48.726;9.248;2022-10-19T05:10:37;24.02;;;11.20;;
44130;SDS011;29792;48.726;9.248;2022-10-19T05:13:02;39.65;;;12.13;;
44130;SDS011;29792;48.726;9.248;2022-10-19T05:15:28;35.92;;;12.75;;
44130;SDS011;29792;48.726;9.248;2022-10-19T05:17:54;20.95;;;11.90;;
44130;SDS011;29792;48.726;9.248;2022-10-19T05:20:19;24.15;;;10.82;;
44130;SDS011;29792;48.726;9.248;2022-10-19T05:22:45;12.55;;;9.40;;
44130;SDS011;29792;48.726;9.248;2022-10-19T05:25:10;15.02;;;9.90;;
44130;SDS011;29792;48.726;9.248;2022-10-19T05:27:35;21.55;;;10.45;;
44130;SDS011;29792;48.726;9.248;2022-10-19T05:30:00;16.77;;;9.98;;
44130;SDS011;29792;48.726;9.248;2022-10-19T05:32:26;20.60;;;10.85;;
44130;SDS011;29792;48.726;9.248;2022-10-19T05:34:52;21.25;;;11.32;;
44130;SDS011;29792;48.726;9.248;2022-10-19T05:37:18;21.05;;;12.23;;
44130;SDS011;29792;48.726;9.248;2022-10-19T05:39:45;17.23;;;11.70;;
44130;SDS011;29792;48.726;9.248;2022-10-19T05:42:10;17.17;;;10.70;;
44130;SDS011;29792;48.726;9.248;2022-10-19T05:44:36;19.17;;;10.40;;
44130;SDS011;29792;48.726;9.248;2022-10-19T05:47:01;23.58;;;10.23;;
44130;SDS011;29792;48.726;9.248;2022-10-19T05:49:26;17.73;;;9.00;;
44130;SDS011;29792;48.726;9.248;2022-10-19T05:51:51;22.42;;;10.15;;
44130;SDS011;29792;48.726;9.248;2022-10-19T05:54:17;21.25;;;9.73;;
44130;SDS011;29792;48.726;9.248;2022-10-19T05:56:43;17.95;;;9.88;;
44130;SDS011;29792;48.726;9.248;2022-10-19T05:59:10;20.05;;;10.93;;
44130;SDS011;29792;48.726;9.248;2022-10-19T06:01:39;22.23;;;10.98;;
44130;SDS011;29792;48.726;9.248;2022-10-19T06:04:04;19.48;;;8.68;;
44130;SDS011;29792;48.726;9.248;2022-10-19T06:06:31;29.45;;;7.72;;
44130;SDS011;29792;48.726;9.248;2022-10-19T06:08:56;18.58;;;7.45;;
44130;SDS011;29792;48.726;9.248;2022-10-19T06:11:26;18.45;;;7.88;;
44130;SDS011;29792;48.726;9.248;2022-10-19T06:13:59;18.35;;;9.02;;
44130;SDS011;29792;48.726;9.248;2022-10-19T06:16:26;25.05;;;8.48;;
44130;SDS011;29792;48.726;9.248;2022-10-19T06:18:53;15.82;;;8.30;;
44130;SDS011;29792;48.726;9.248;2022-10-19T06:21:21;20.58;;;10.02;;
44130;SDS011;29792;48.726;9.248;2022-10-19T06:23:52;22.55;;;12.77;;
44130;SDS011;29792;48.726;9.248;2022-10-19T06:26:22;16.63;;;11.68;;
44130;SDS011;29792;48.726;9.248;2022-10-19T06:28:49;10.95;;;8.80;;
44130;SDS011;29792;48.726;9.248;2022-10-19T06:31:14;13.85;;;9.98;;
44130;SDS011;29792;48.726;9.248;2022-10-19T06:33:40;13.27;;;9.27;;
44130;SDS011;29792;48.726;9.248;2022-10-19T06:36:08;15.07;;;9.80;;
44130;SDS011;29792;48.726;9.248;2022-10-19T06:38:37;11.63;;;9.10;;
44130;SDS011;29792;48.726;9.248;2022-10-19T06:41:03;14.05;;;9.38;;
44130;SDS011;29792;48.726;9.248;2022-10-19T06:43:29;16.33;;;9.38;;
44130;SDS011;29792;48.726;9.248;2022-10-19T06:45:55;11.40;;;9.43;;
44130;SDS011;29792;48.726;9.248;2022-10-19T06:48:20;15.27;;;9.93;;
44130;SDS011;29792;48.726;9.248;2022-10-19T06:50:46;13.48;;;10.43;;
44130;SDS011;29792;48.726;9.248;2022-10-19T06:53:19;31.67;;;10.88;;
44130;SDS011;29792;48.726;9.248;2022-10-19T06:55:45;42.67;;;11.15;;
44130;SDS011;29792;48.726;9.248;2022-10-19T06:58:10;16.40;;;9.40;;
44130;SDS011;29792;48.726;9.248;2022-10-19T07:00:35;29.85;;;10.55;;
44130;SDS011;29792;48.726;9.248;2022-10-19T07:03:00;19.23;;;9.52;;
44130;SDS011;29792;48.726;9.248;2022-10-19T07:05:26;13.43;;;10.70;;
44130;SDS011;29792;48.726;9.248;2022-10-19T07:07:51;11.90;;;9.23;;
44130;SDS011;29792;48.726;9.248;2022-10-19T07:10:16;13.50;;;10.13;;
44130;SDS011;29792;48.726;9.248;2022-10-19T07:12:41;13.45;;;9.43;;
44130;SDS011;29792;48.726;9.248;2022-10-19T07:15:07;14.73;;;10.10;;
44130;SDS011;29792;48.726;9.248;2022-10-19T07:17:32;11.98;;;9.75;;
44130;SDS011;29792;48.726;9.248;2022-10-19T07:19:58;11.35;;;9.45;;
44130;SDS011;29792;48.726;9.248;2022-10-19T07:22:23;11.85;;;9.27;;
44130;SDS011;29792;48.726;9.248;2022-10-19T07:24:48;11.20;;;8.73;;
44130;SDS011;29792;48.726;9.248;2022-10-19T07:27:13;13.02;;;10.70;;
44130;SDS011;29792;48.726;9.248;2022-10-19T07:29:39;12.23;;;10.10;;
44130;SDS011;29792;48.726;9.248;2022-10-19T07:32:04;13.77;;;10.63;;
44130;SDS011;29792;48.726;9.248;2022-10-19T07:34:29;16.77;;;12.07;;
44130;SDS011;29792;48.726;9.248;2022-10-19T07:36:55;13.45;;;9.95;;
44130;SDS011;29792;48.726;9.248;2022-10-19T07:39:20;12.52;;;8.90;;
44130;SDS011;29792;48.726;9.248;2022-10-19T07:41:45;11.77;;;9.75;;
44130;SDS011;29792;48.726;9.248;2022-10-19T07:44:11;13.80;;;10.52;;
44130;SDS011;29792;48.726;9.248;2022-10-19T07:46:37;13.30;;;9.85;;
44130;SDS011;29792;48.726;9.248;2022-10-19T07:49:04;13.35;;;9.80;;
44130;SDS011;29792;48.726;9.248;2022-10-19T07:51:31;12.68;;;9.23;;
44130;SDS011;29792;48.726;9.248;2022-10-19T07:53:57;19.88;;;11.07;;
44130;SDS011;29792;48.726;9.248;2022-10-19T07:56:23;12.68;;;10.27;;
44130;SDS011;29792;48.726;9.248;2022-10-19T07:58:50;13.00;;;10.13;;
44130;SDS011;29792;48.726;9.248;2022-10-19T08:01:18;13.65;;;10.52;;
44130;SDS011;29792;48.726;9.248;2022-10-19T08:03:46;13.88;;;11.70;;
44130;SDS011;29792;48.726;9.248;2022-10-19T08:06:13;14.43;;;11.15;;
44130;SDS011;29792;48.726;9.248;2022-10-19T08:08:40;15.57;;;13.85;;
44130;SDS011;29792;48.726;9.248;2022-10-19T08:11:26;15.13;;;11.40;;
44130;SDS011;29792;48.726;9.248;2022-10-19T08:13:54;16.20;;;11.95;;
44130;SDS011;29792;48.726;9.248;2022-10-19T08:16:24;17.02;;;11.68;;
44130;SDS011;29792;48.726;9.248;2022-10-19T08:18:54;14.57;;;10.85;;
44130;SDS011;29792;48.726;9.248;2022-10-19T08:21:21;12.75;;;9.57;;
44130;SDS011;29792;48.726;9.248;2022-10-19T08:23:47;11.65;;;9.48;;
44130;SDS011;29792;48.726;9.248;2022-10-19T08:26:12;14.15;;;9.25;;
44130;SDS011;29792;48.726;9.248;2022-10-19T08:28:37;9.43;;;7.93;;
44130;SDS011;29792;48.726;9.248;2022-10-19T08:31:10;10.38;;;9.43;;
44130;SDS011;29792;48.726;9.248;2022-10-19T08:33:36;10.45;;;9.35;;
44130;SDS011;29792;48.726;9.248;2022-10-19T08:36:07;10.43;;;9.32;;
44130;SDS011;29792;48.726;9.248;2022-10-19T08:38:34;10.38;;;9.10;;
44130;SDS011;29792;48.726;9.248;2022-10-19T08:41:04;12.40;;;9.38;;
44130;SDS011;29792;48.726;9.248;2022-10-19T08:46:22;12.07;;;9.88;;
44130;SDS011;29792;48.726;9.248;2022-10-19T08:48:57;11.50;;;9.95;;
44130;SDS011;29792;48.726;9.248;2022-10-19T08:51:24;9.15;;;8.00;;
44130;SDS011;29792;48.726;9.248;2022-10-19T08:53:53;9.98;;;7.20;;
44130;SDS011;29792;48.726;9.248;2022-10-19T08:56:28;8.88;;;7.38;;
44130;SDS011;29792;48.726;9.248;2022-10-19T08:59:01;9.00;;;7.72;;
44130;SDS011;29792;48.726;9.248;2022-10-19T09:01:42;12.05;;;8.40;;
44130;SDS011;29792;48.726;9.248;2022-10-19T09:04:20;10.05;;;7.97;;
44130;SDS011;29792;48.726;9.248;2022-10-19T09:09:15;9.45;;;8.35;;
44130;SDS011;29792;48.726;9.248;2022-10-19T09:11:48;10.75;;;9.40;;
44130;SDS011;29792;48.726;9.248;2022-10-19T09:14:17;9.07;;;7.95;;
44130;SDS011;29792;48.726;9.248;2022-10-19T09:16:49;10.02;;;8.02;;
44130;SDS011;29792;48.726;9.248;2022-10-19T09:19:21;13.60;;;9.57;;
44130;SDS011;29792;48.726;9.248;2022-10-19T09:22:32;9.25;;;8.25;;
44130;SDS011;29792;48.726;9.248;2022-10-19T09:24:42;7.63;;;6.78;;
44130;SDS011;29792;48.726;9.248;2022-10-19T09:27:24;7.18;;;5.43;;
44130;SDS011;29792;48.726;9.248;2022-10-19T09:29:57;7.10;;;6.03;;
44130;SDS011;29792;48.726;9.248;2022-10-19T09:32:30;12.73;;;7.43;;
44130;SDS011;29792;48.726;9.248;2022-10-19T09:34:58;7.03;;;6.20;;
44130;SDS011;29792;48.726;9.248;2022-10-19T09:37:41;6.07;;;5.47;;
44130;SDS011;29792;48.726;9.248;2022-10-19T09:40:13;7.22;;;5.70;;
44130;SDS011;29792;48.726;9.248;2022-10-19T09:42:42;6.60;;;5.80;;
44130;SDS011;29792;48.726;9.248;2022-10-19T09:45:13;5.72;;;4.72;;
44130;SDS011;29792;48.726;9.248;2022-10-19T09:47:45;4.53;;;4.13;;
44130;SDS011;29792;48.726;9.248;2022-10-19T09:50:16;5.30;;;4.78;;
44130;SDS011;29792;48.726;9.248;2022-10-19T09:52:44;6.30;;;5.70;;
44130;SDS011;29792;48.726;9.248;2022-10-19T09:58:15;5.10;;;4.28;;
44130;SDS011;29792;48.726;9.248;2022-10-19T10:00:47;4.78;;;4.38;;
44130;SDS011;29792;48.726;9.248;2022-10-19T10:03:20;2.80;;;2.60;;
44130;SDS011;29792;48.726;9.248;2022-10-19T10:05:47;4.55;;;3.28;;
44130;SDS011;29792;48.726;9.248;2022-10-19T10:08:14;4.35;;;3.83;;
44130;SDS011;29792;48.726;9.248;2022-10-19T10:10:46;3.95;;;3.55;;
44130;SDS011;29792;48.726;9.248;2022-10-19T10:13:37;4.25;;;3.63;;
44130;SDS011;29792;48.726;9.248;2022-10-19T10:16:06;5.10;;;3.97;;
44130;SDS011;29792;48.726;9.248;2022-10-19T10:18:37;4.90;;;4.50;;
44130;SDS011;29792;48.726;9.248;2022-10-19T10:21:19;6.82;;;4.30;;
44130;SDS011;29792;48.726;9.248;2022-10-19T10:26:25;9.60;;;4.97;;
44130;SDS011;29792;48.726;9.248;2022-10-19T10:28:51;4.10;;;3.67;;
44130;SDS011;29792;48.726;9.248;2022-10-19T10:31:24;4.47;;;3.40;;
44130;SDS011;29792;48.726;9.248;2022-10-19T10:33:56;3.35;;;2.72;;
44130;SDS011;29792;48.726;9.248;2022-10-19T10:36:27;3.70;;;3.33;;
44130;SDS011;29792;48.726;9.248;2022-10-19T10:39:01;3.47;;;3.17;;
44130;SDS011;29792;48.726;9.248;2022-10-19T10:41:30;3.40;;;3.05;;
44130;SDS011;29792;48.726;9.248;2022-10-19T10:44:05;3.20;;;2.90;;
44130;SDS011;29792;48.726;9.248;2022-10-19T10:46:33;3.55;;;3.25;;
44130;SDS011;29792;48.726;9.248;2022-10-19T10:49:02;2.92;;;2.58;;
44130;SDS011;29792;48.726;9.248;2022-10-19T10:54:07;3.85;;;3.55;;
44130;SDS011;29792;48.726;9.248;2022-10-19T10:56:39;3.28;;;2.83;;
44130;SDS011;29792;48.726;9.248;2022-10-19T10:59:17;3.80;;;3.35;;
44130;SDS011;29792;48.726;9.248;2022-10-19T11:01:57;5.07;;;3.22;;
44130;SDS011;29792;48.726;9.248;2022-10-19T11:04:38;4.38;;;3.22;;
44130;SDS011;29792;48.726;9.248;2022-10-19T11:07:26;4.68;;;3.60;;
44130;SDS011;29792;48.726;9.248;2022-10-19T11:10:10;4.45;;;4.00;;
44130;SDS011;29792;48.726;9.248;2022-10-19T11:12:45;5.93;;;5.38;;
44130;SDS011;29792;48.726;9.248;2022-10-19T11:15:22;4.65;;;4.22;;
44130;SDS011;29792;48.726;9.248;2022-10-19T11:17:56;6.57;;;3.97;;
44130;SDS011;29792;48.726;9.248;2022-10-19T11:20:30;4.00;;;3.28;;
44130;SDS011;29792;48.726;9.248;2022-10-19T11:23:01;3.72;;;3.42;;
44130;SDS011;29792;48.726;9.248;2022-10-19T11:25:48;5.22;;;3.58;;
44130;SDS011;29792;48.726;9.248;2022-10-19T11:28:36;6.82;;;5.05;;
44130;SDS011;29792;48.726;9.248;2022-10-19T11:31:46;4.53;;;4.13;;
44130;SDS011;29792;48.726;9.248;2022-10-19T11:37:03;4.22;;;3.20;;
44130;SDS011;29792;48.726;9.248;2022-10-19T11:48:25;7.50;;;4.85;;
44130;SDS011;29792;48.726;9.248;2022-10-19T11:51:11;5.05;;;4.53;;
44130;SDS011;29792;48.726;9.248;2022-10-19T11:54:18;4.93;;;4.22;;
44130;SDS011;29792;48.726;9.248;2022-10-19T11:56:54;4.88;;;3.95;;
44130;SDS011;29792;48.726;9.248;2022-10-19T12:05:03;5.00;;;3.83;;
44130;SDS011;29792;48.726;9.248;2022-10-19T12:10:19;5.88;;;4.57;;
44130;SDS011;29792;48.726;9.248;2022-10-19T12:13:10;4.65;;;4.25;;
44130;SDS011;29792;48.726;9.248;2022-10-19T12:15:42;5.15;;;4.63;;
44130;SDS011;29792;48.726;9.248;2022-10-19T12:21:00;6.03;;;5.43;;
44130;SDS011;29792;48.726;9.248;2022-10-19T12:26:03;6.07;;;4.57;;
44130;SDS011;29792;48.726;9.248;2022-10-19T12:28:32;13.02;;;11.30;;
44130;SDS011;29792;48.726;9.248;2022-10-19T12:31:00;21.70;;;11.43;;
44130;SDS011;29792;48.726;9.248;2022-10-19T12:36:14;7.18;;;6.30;;
44130;SDS011;29792;48.726;9.248;2022-10-19T12:39:01;8.27;;;4.07;;
44130;SDS011;29792;48.726;9.248;2022-10-19T12:41:42;5.80;;;4.65;;
44130;SDS011;29792;48.726;9.248;2022-10-19T12:47:05;5.68;;;5.18;;
44130;SDS011;29792;48.726;9.248;2022-10-19T12:49:36;5.65;;;5.15;;
44130;SDS011;29792;48.726;9.248;2022-10-19T12:52:08;4.88;;;4.40;;
44130;SDS011;29792;48.726;9.248;2022-10-19T12:54:35;5.30;;;4.80;;
44130;SDS011;29792;48.726;9.248;2022-10-19T12:57:02;4.63;;;4.20;;
44130;SDS011;29792;48.726;9.248;2022-10-19T12:59:43;4.57;;;4.03;;
44130;SDS011;29792;48.726;9.248;2022-10-19T13:02:25;5.55;;;3.60;;
44130;SDS011;29792;48.726;9.248;2022-10-19T13:04:54;4.28;;;3.65;;
44130;SDS011;29792;48.726;9.248;2022-10-19T13:07:20;4.43;;;4.03;;
44130;SDS011;29792;48.726;9.248;2022-10-19T13:09:45;5.13;;;4.30;;
44130;SDS011;29792;48.726;9.248;2022-10-19T13:22:43;3.67;;;3.20;;
44130;SDS011;29792;48.726;9.248;2022-10-19T13:38:27;4.68;;;4.25;;
44130;SDS011;29792;48.726;9.248;2022-10-19T13:43:25;3.22;;;2.58;;
44130;SDS011;29792;48.726;9.248;2022-10-19T13:45:54;3.88;;;3.50;;
44130;SDS011;29792;48.726;9.248;2022-10-19T13:51:18;3.58;;;3.15;;
44130;SDS011;29792;48.726;9.248;2022-10-19T13:53:59;3.80;;;3.17;;
44130;SDS011;29792;48.726;9.248;2022-10-19T13:56:44;6.30;;;2.75;;
44130;SDS011;29792;48.726;9.248;2022-10-19T14:01:59;4.05;;;3.10;;
44130;SDS011;29792;48.726;9.248;2022-10-19T14:04:48;6.43;;;3.42;;
44130;SDS011;29792;48.726;9.248;2022-10-19T14:07:31;4.22;;;3.50;;
44130;SDS011;29792;48.726;9.248;2022-10-19T14:10:18;3.67;;;2.97;;
44130;SDS011;29792;48.726;9.248;2022-10-19T14:12:46;4.32;;;3.53;;
44130;SDS011;29792;48.726;9.248;2022-10-19T14:17:44;3.58;;;3.17;;
44130;SDS011;29792;48.726;9.248;2022-10-19T14:20:23;3.38;;;3.08;;
44130;SDS011;29792;48.726;9.248;2022-10-19T14:22:51;6.15;;;3.50;;
44130;SDS011;29792;48.726;9.248;2022-10-19T14:25:26;4.15;;;3.60;;
44130;SDS011;29792;48.726;9.248;2022-10-19T14:27:57;3.33;;;3.03;;
44130;SDS011;29792;48.726;9.248;2022-10-19T14:30:29;7.20;;;4.15;;
44130;SDS011;29792;48.726;9.248;2022-10-19T14:32:58;9.70;;;4.30;;
44130;SDS011;29792;48.726;9.248;2022-10-19T14:35:35;4.47;;;4.07;;
44130;SDS011;29792;48.726;9.248;2022-10-19T14:38:02;3.72;;;3.35;;
44130;SDS011;29792;48.726;9.248;2022-10-19T14:40:30;4.50;;;3.58;;
44130;SDS011;29792;48.726;9.248;2022-10-19T14:42:57;7.63;;;5.15;;
44130;SDS011;29792;48.726;9.248;2022-10-19T14:45:32;4.28;;;3.90;;
44130;SDS011;29792;48.726;9.248;2022-10-19T14:48:02;6.88;;;3.58;;
44130;SDS011;29792;48.726;9.248;2022-10-19T14:50:43;4.28;;;3.85;;
44130;SDS011;29792;48.726;9.248;2022-10-19T14:56:01;4.88;;;3.97;;
44130;SDS011;29792;48.726;9.248;2022-10-19T14:58:34;6.13;;;3.10;;
44130;SDS011;29792;48.726;9.248;2022-10-19T15:01:05;4.00;;;2.92;;
44130;SDS011;29792;48.726;9.248;2022-10-19T15:03:31;6.80;;;3.72;;
44130;SDS011;29792;48.726;9.248;2022-10-19T15:05:58;3.42;;;3.13;;
44130;SDS011;29792;48.726;9.248;2022-10-19T15:08:31;3.55;;;3.25;;
44130;SDS011;29792;48.726;9.248;2022-10-19T15:11:02;4.18;;;3.78;;
44130;SDS011;29792;48.726;9.248;2022-10-19T15:13:34;3.63;;;3.20;;
44130;SDS011;29792;48.726;9.248;2022-10-19T15:16:05;4.15;;;3.75;;
44130;SDS011;29792;48.726;9.248;2022-10-19T15:18:50;5.88;;;4.20;;
44130;SDS011;29792;48.726;9.248;2022-10-19T15:21:19;5.45;;;4.00;;
44130;SDS011;29792;48.726;9.248;2022-10-19T15:23:49;5.43;;;3.28;;
44130;SDS011;29792;48.726;9.248;2022-10-19T15:26:20;4.38;;;4.00;;
44130;SDS011;29792;48.726;9.248;2022-10-19T15:28:52;4.57;;;3.80;;
44130;SDS011;29792;48.726;9.248;2022-10-19T15:31:20;4.40;;;3.88;;
44130;SDS011;29792;48.726;9.248;2022-10-19T15:33:53;4.40;;;4.03;;
44130;SDS011;29792;48.726;9.248;2022-10-19T15:36:21;5.75;;;3.97;;
44130;SDS011;29792;48.726;9.248;2022-10-19T15:38:49;4.93;;;3.75;;
44130;SDS011;29792;48.726;9.248;2022-10-19T15:41:31;6.13;;;4.30;;
44130;SDS011;29792;48.726;9.248;2022-10-19T15:44:27;5.25;;;4.18;;
44130;SDS011;29792;48.726;9.248;2022-10-19T15:47:11;5.38;;;4.18;;
44130;SDS011;29792;48.726;9.248;2022-10-19T15:52:40;4.32;;;3.92;;
44130;SDS011;29792;48.726;9.248;2022-10-19T15:54:59;5.15;;;4.65;;
44130;SDS011;29792;48.726;9.248;2022-10-19T15:57:31;5.07;;;4.40;;
44130;SDS011;29792;48.726;9.248;2022-10-19T15:59:59;3.95;;;3.55;;
44130;SDS011;29792;48.726;9.248;2022-10-19T16:02:39;4.15;;;3.70;;
44130;SDS011;29792;48.726;9.248;2022-10-19T16:05:08;4.97;;;3.83;;
44130;SDS011;29792;48.726;9.248;2022-10-19T16:07:34;4.97;;;4.43;;
44130;SDS011;29792;48.726;9.248;2022-10-19T16:10:02;5.30;;;4.10;;
44130;SDS011;29792;48.726;9.248;2022-10-19T16:12:28;4.95;;;4.35;;
44130;SDS011;29792;48.726;9.248;2022-10-19T16:14:53;4.28;;;3.75;;
44130;SDS011;29792;48.726;9.248;2022-10-19T16:17:19;4.15;;;3.75;;
44130;SDS011;29792;48.726;9.248;2022-10-19T16:19:45;7.30;;;4.07;;
44130;SDS011;29792;48.726;9.248;2022-10-19T16:22:11;5.53;;;3.78;;
44130;SDS011;29792;48.726;9.248;2022-10-19T16:24:37;7.07;;;5.57;;
44130;SDS011;29792;48.726;9.248;2022-10-19T16:27:03;7.50;;;4.15;;
44130;SDS011;29792;48.726;9.248;2022-10-19T16:29:28;5.15;;;4.28;;
44130;SDS011;29792;48.726;9.248;2022-10-19T16:31:54;5.40;;;4.75;;
44130;SDS011;29792;48.726;9.248;2022-10-19T16:34:19;5.82;;;5.30;;
44130;SDS011;29792;48.726;9.248;2022-10-19T16:36:45;5.80;;;5.03;;
44130;SDS011;29792;48.726;9.248;2022-10-19T16:39:11;6.30;;;5.70;;
44130;SDS011;29792;48.726;9.248;2022-10-19T16:41:37;10.30;;;7.15;;